sensor_id;sensor_type;location;lat;lon;timestamp;temperature;humidity
68691;DHT22;55675;49.588;8.640;2022-12-31T00:01:11;15.00;96.20
68691;DHT22;55675;49.588;8.640;2022-12-31T00:03:37;15.00;96.20
68691;DHT22;55675;49.588;8.640;2022-12-31T00:08:43;15.10;96.20
68691;DHT22;55675;49.588;8.640;2022-12-31T00:11:09;15.10;96.20
68691;DHT22;55675;49.588;8.640;2022-12-31T00:13:34;15.10;96.30
68691;DHT22;55675;49.588;8.640;2022-12-31T00:16:07;15.10;96.30
68691;DHT22;55675;49.588;8.640;2022-12-31T00:18:33;15.10;96.30
68691;DHT22;55675;49.588;8.640;2022-12-31T00:20:58;15.10;96.20
68691;DHT22;55675;49.588;8.640;2022-12-31T00:23:26;15.10;96.30
68691;DHT22;55675;49.588;8.640;2022-12-31T00:25:51;15.20;96.30
68691;DHT22;55675;49.588;8.640;2022-12-31T00:28:17;15.20;96.40
68691;DHT22;55675;49.588;8.640;2022-12-31T00:30:42;15.20;96.60
68691;DHT22;55675;49.588;8.640;2022-12-31T00:33:07;15.20;96.70
68691;DHT22;55675;49.588;8.640;2022-12-31T00:35:33;15.20;96.90
68691;DHT22;55675;49.588;8.640;2022-12-31T00:38:00;15.20;97.10
68691;DHT22;55675;49.588;8.640;2022-12-31T00:40:27;15.20;97.20
68691;DHT22;55675;49.588;8.640;2022-12-31T00:42:52;15.10;97.30
68691;DHT22;55675;49.588;8.640;2022-12-31T00:45:18;15.10;97.40
68691;DHT22;55675;49.588;8.640;2022-12-31T00:47:43;15.10;97.60
68691;DHT22;55675;49.588;8.640;2022-12-31T00:50:08;15.10;97.60
68691;DHT22;55675;49.588;8.640;2022-12-31T00:52:34;15.10;97.80
68691;DHT22;55675;49.588;8.640;2022-12-31T00:54:59;15.10;97.90
68691;DHT22;55675;49.588;8.640;2022-12-31T00:57:25;15.00;98.00
68691;DHT22;55675;49.588;8.640;2022-12-31T00:59:50;15.00;98.10
68691;DHT22;55675;49.588;8.640;2022-12-31T01:02:16;15.00;98.30
68691;DHT22;55675;49.588;8.640;2022-12-31T01:04:41;15.00;98.30
68691;DHT22;55675;49.588;8.640;2022-12-31T01:07:06;15.00;98.60
68691;DHT22;55675;49.588;8.640;2022-12-31T01:09:32;15.00;98.30
68691;DHT22;55675;49.588;8.640;2022-12-31T01:11:57;15.10;98.40
68691;DHT22;55675;49.588;8.640;2022-12-31T01:14:23;15.00;98.40
68691;DHT22;55675;49.588;8.640;2022-12-31T01:16:49;15.10;98.40
68691;DHT22;55675;49.588;8.640;2022-12-31T01:19:16;15.00;98.40
68691;DHT22;55675;49.588;8.640;2022-12-31T01:21:42;15.00;98.40
68691;DHT22;55675;49.588;8.640;2022-12-31T01:24:08;15.00;98.50
68691;DHT22;55675;49.588;8.640;2022-12-31T01:26:35;15.00;98.50
68691;DHT22;55675;49.588;8.640;2022-12-31T01:29:00;15.10;98.50
68691;DHT22;55675;49.588;8.640;2022-12-31T01:31:26;15.00;98.40
68691;DHT22;55675;49.588;8.640;2022-12-31T01:33:51;15.10;98.40
68691;DHT22;55675;49.588;8.640;2022-12-31T01:36:21;15.10;98.40
68691;DHT22;55675;49.588;8.640;2022-12-31T01:38:46;15.00;98.40
68691;DHT22;55675;49.588;8.640;2022-12-31T01:41:13;15.00;98.30
68691;DHT22;55675;49.588;8.640;2022-12-31T01:43:44;15.10;98.20
68691;DHT22;55675;49.588;8.640;2022-12-31T01:46:10;15.10;98.20
68691;DHT22;55675;49.588;8.640;2022-12-31T01:48:36;15.10;98.10
68691;DHT22;55675;49.588;8.640;2022-12-31T01:51:02;15.10;97.90
68691;DHT22;55675;49.588;8.640;2022-12-31T01:53:28;15.20;97.90
68691;DHT22;55675;49.588;8.640;2022-12-31T01:55:56;15.20;97.80
68691;DHT22;55675;49.588;8.640;2022-12-31T01:58:22;15.20;97.80
68691;DHT22;55675;49.588;8.640;2022-12-31T02:00:50;15.20;97.70
68691;DHT22;55675;49.588;8.640;2022-12-31T02:03:16;15.30;97.60
68691;DHT22;55675;49.588;8.640;2022-12-31T02:08:13;15.30;97.30
68691;DHT22;55675;49.588;8.640;2022-12-31T02:10:40;15.30;97.20
68691;DHT22;55675;49.588;8.640;2022-12-31T02:13:05;15.30;97.00
68691;DHT22;55675;49.588;8.640;2022-12-31T02:15:37;15.30;96.90
68691;DHT22;55675;49.588;8.640;2022-12-31T02:21:25;15.40;96.60
68691;DHT22;55675;49.588;8.640;2022-12-31T02:26:27;15.50;96.30
68691;DHT22;55675;49.588;8.640;2022-12-31T02:31:25;15.50;96.00
68691;DHT22;55675;49.588;8.640;2022-12-31T02:33:56;15.50;95.80
68691;DHT22;55675;49.588;8.640;2022-12-31T02:36:26;15.50;95.70
68691;DHT22;55675;49.588;8.640;2022-12-31T02:38:52;15.50;95.70
68691;DHT22;55675;49.588;8.640;2022-12-31T02:41:19;15.50;95.60
68691;DHT22;55675;49.588;8.640;2022-12-31T02:49:22;15.60;95.30
68691;DHT22;55675;49.588;8.640;2022-12-31T02:51:53;15.60;95.00
68691;DHT22;55675;49.588;8.640;2022-12-31T02:54:24;15.60;94.90
68691;DHT22;55675;49.588;8.640;2022-12-31T02:59:38;15.70;94.70
68691;DHT22;55675;49.588;8.640;2022-12-31T03:02:24;15.70;94.50
68691;DHT22;55675;49.588;8.640;2022-12-31T03:04:55;15.80;94.40
68691;DHT22;55675;49.588;8.640;2022-12-31T03:07:22;15.80;94.40
68691;DHT22;55675;49.588;8.640;2022-12-31T03:09:48;15.80;94.20
68691;DHT22;55675;49.588;8.640;2022-12-31T03:12:14;15.80;94.10
68691;DHT22;55675;49.588;8.640;2022-12-31T03:14:58;15.90;94.00
68691;DHT22;55675;49.588;8.640;2022-12-31T03:17:24;15.90;93.90
68691;DHT22;55675;49.588;8.640;2022-12-31T03:19:49;15.90;93.80
68691;DHT22;55675;49.588;8.640;2022-12-31T03:22:35;15.90;93.70
68691;DHT22;55675;49.588;8.640;2022-12-31T03:25:04;15.90;93.60
68691;DHT22;55675;49.588;8.640;2022-12-31T03:27:48;15.90;93.50
68691;DHT22;55675;49.588;8.640;2022-12-31T03:30:15;15.90;93.60
68691;DHT22;55675;49.588;8.640;2022-12-31T03:32:41;15.90;93.90
68691;DHT22;55675;49.588;8.640;2022-12-31T03:35:07;15.90;93.70
68691;DHT22;55675;49.588;8.640;2022-12-31T03:37:33;15.90;93.60
68691;DHT22;55675;49.588;8.640;2022-12-31T03:39:58;16.00;93.90
68691;DHT22;55675;49.588;8.640;2022-12-31T03:42:24;15.90;93.60
68691;DHT22;55675;49.588;8.640;2022-12-31T03:44:49;15.90;93.60
68691;DHT22;55675;49.588;8.640;2022-12-31T03:47:15;16.00;93.70
68691;DHT22;55675;49.588;8.640;2022-12-31T03:49:40;16.00;93.70
68691;DHT22;55675;49.588;8.640;2022-12-31T03:58:12;16.10;93.30
68691;DHT22;55675;49.588;8.640;2022-12-31T04:00:37;16.10;93.40
68691;DHT22;55675;49.588;8.640;2022-12-31T04:03:03;16.10;93.20
68691;DHT22;55675;49.588;8.640;2022-12-31T04:05:28;16.20;93.30
68691;DHT22;55675;49.588;8.640;2022-12-31T04:07:54;16.20;93.00
68691;DHT22;55675;49.588;8.640;2022-12-31T04:10:20;16.30;92.90
68691;DHT22;55675;49.588;8.640;2022-12-31T04:12:45;16.30;93.20
68691;DHT22;55675;49.588;8.640;2022-12-31T04:15:16;16.30;92.60
68691;DHT22;55675;49.588;8.640;2022-12-31T04:17:42;16.30;92.70
68691;DHT22;55675;49.588;8.640;2022-12-31T04:20:07;16.30;92.40
68691;DHT22;55675;49.588;8.640;2022-12-31T04:22:33;16.30;92.50
68691;DHT22;55675;49.588;8.640;2022-12-31T04:24:58;16.30;92.40
68691;DHT22;55675;49.588;8.640;2022-12-31T04:27:24;16.30;92.40
68691;DHT22;55675;49.588;8.640;2022-12-31T04:29:49;16.40;92.30
68691;DHT22;55675;49.588;8.640;2022-12-31T04:32:14;16.40;92.20
68691;DHT22;55675;49.588;8.640;2022-12-31T04:34:40;16.40;92.10
68691;DHT22;55675;49.588;8.640;2022-12-31T04:37:05;16.40;92.00
68691;DHT22;55675;49.588;8.640;2022-12-31T04:39:31;16.40;92.00
68691;DHT22;55675;49.588;8.640;2022-12-31T04:41:56;16.30;92.00
68691;DHT22;55675;49.588;8.640;2022-12-31T04:44:22;16.40;92.30
68691;DHT22;55675;49.588;8.640;2022-12-31T04:46:47;16.40;92.10
68691;DHT22;55675;49.588;8.640;2022-12-31T04:49:12;16.40;92.20
68691;DHT22;55675;49.588;8.640;2022-12-31T04:51:38;16.40;92.10
68691;DHT22;55675;49.588;8.640;2022-12-31T04:54:03;16.40;92.10
68691;DHT22;55675;49.588;8.640;2022-12-31T04:56:29;16.40;91.90
68691;DHT22;55675;49.588;8.640;2022-12-31T04:58:55;16.50;92.30
68691;DHT22;55675;49.588;8.640;2022-12-31T05:01:20;16.50;91.70
68691;DHT22;55675;49.588;8.640;2022-12-31T05:03:46;16.50;92.00
68691;DHT22;55675;49.588;8.640;2022-12-31T05:06:13;16.50;91.80
68691;DHT22;55675;49.588;8.640;2022-12-31T05:08:39;16.50;91.60
68691;DHT22;55675;49.588;8.640;2022-12-31T05:11:04;16.50;91.70
68691;DHT22;55675;49.588;8.640;2022-12-31T05:13:30;16.60;91.80
68691;DHT22;55675;49.588;8.640;2022-12-31T05:15:55;16.60;91.60
68691;DHT22;55675;49.588;8.640;2022-12-31T05:18:21;16.60;91.30
68691;DHT22;55675;49.588;8.640;2022-12-31T05:20:47;16.60;91.30
68691;DHT22;55675;49.588;8.640;2022-12-31T05:23:13;16.60;91.40
68691;DHT22;55675;49.588;8.640;2022-12-31T05:25:39;16.50;91.20
68691;DHT22;55675;49.588;8.640;2022-12-31T05:28:04;16.60;91.20
68691;DHT22;55675;49.588;8.640;2022-12-31T05:30:30;16.60;91.70
68691;DHT22;55675;49.588;8.640;2022-12-31T05:32:55;16.70;91.40
68691;DHT22;55675;49.588;8.640;2022-12-31T05:35:20;16.70;91.10
68691;DHT22;55675;49.588;8.640;2022-12-31T05:37:46;16.70;91.20
68691;DHT22;55675;49.588;8.640;2022-12-31T05:40:11;16.70;91.00
68691;DHT22;55675;49.588;8.640;2022-12-31T05:42:37;16.70;91.00
68691;DHT22;55675;49.588;8.640;2022-12-31T05:45:03;16.70;90.90
68691;DHT22;55675;49.588;8.640;2022-12-31T05:47:28;16.70;90.80
68691;DHT22;55675;49.588;8.640;2022-12-31T05:49:53;16.70;90.80
68691;DHT22;55675;49.588;8.640;2022-12-31T05:52:19;16.70;91.10
68691;DHT22;55675;49.588;8.640;2022-12-31T05:54:44;16.70;90.90
68691;DHT22;55675;49.588;8.640;2022-12-31T05:57:10;16.70;90.80
68691;DHT22;55675;49.588;8.640;2022-12-31T05:59:35;16.70;90.80
68691;DHT22;55675;49.588;8.640;2022-12-31T06:02:01;16.70;90.80
68691;DHT22;55675;49.588;8.640;2022-12-31T06:04:26;16.70;90.80
68691;DHT22;55675;49.588;8.640;2022-12-31T06:06:52;16.60;90.90
68691;DHT22;55675;49.588;8.640;2022-12-31T06:09:17;16.70;90.80
68691;DHT22;55675;49.588;8.640;2022-12-31T06:11:43;16.70;90.80
68691;DHT22;55675;49.588;8.640;2022-12-31T06:14:08;16.70;90.70
68691;DHT22;55675;49.588;8.640;2022-12-31T06:16:34;16.80;90.70
68691;DHT22;55675;49.588;8.640;2022-12-31T06:18:59;16.80;90.50
68691;DHT22;55675;49.588;8.640;2022-12-31T06:21:25;16.80;90.50
68691;DHT22;55675;49.588;8.640;2022-12-31T06:23:51;16.80;90.50
68691;DHT22;55675;49.588;8.640;2022-12-31T06:26:16;16.80;90.50
68691;DHT22;55675;49.588;8.640;2022-12-31T06:28:42;16.80;90.50
68691;DHT22;55675;49.588;8.640;2022-12-31T06:31:08;16.80;90.50
68691;DHT22;55675;49.588;8.640;2022-12-31T06:33:34;16.80;90.50
68691;DHT22;55675;49.588;8.640;2022-12-31T06:36:01;16.80;90.50
68691;DHT22;55675;49.588;8.640;2022-12-31T06:38:27;16.70;90.60
68691;DHT22;55675;49.588;8.640;2022-12-31T06:40:53;16.70;90.60
68691;DHT22;55675;49.588;8.640;2022-12-31T06:43:18;16.70;90.70
68691;DHT22;55675;49.588;8.640;2022-12-31T06:45:44;16.70;90.80
68691;DHT22;55675;49.588;8.640;2022-12-31T06:48:09;16.70;90.80
68691;DHT22;55675;49.588;8.640;2022-12-31T06:50:35;16.70;90.90
68691;DHT22;55675;49.588;8.640;2022-12-31T06:53:00;16.60;90.90
68691;DHT22;55675;49.588;8.640;2022-12-31T06:55:26;16.60;91.00
68691;DHT22;55675;49.588;8.640;2022-12-31T06:57:51;16.50;91.00
68691;DHT22;55675;49.588;8.640;2022-12-31T07:00:17;16.50;91.10
68691;DHT22;55675;49.588;8.640;2022-12-31T07:15:58;16.60;91.20
68691;DHT22;55675;49.588;8.640;2022-12-31T07:18:37;16.60;91.10
68691;DHT22;55675;49.588;8.640;2022-12-31T07:21:08;16.60;91.10
68691;DHT22;55675;49.588;8.640;2022-12-31T07:23:35;16.60;91.00
68691;DHT22;55675;49.588;8.640;2022-12-31T07:28:59;16.60;91.00
68691;DHT22;55675;49.588;8.640;2022-12-31T07:31:49;16.60;91.00
68691;DHT22;55675;49.588;8.640;2022-12-31T07:37:08;16.50;91.10
68691;DHT22;55675;49.588;8.640;2022-12-31T07:39:40;16.50;91.10
68691;DHT22;55675;49.588;8.640;2022-12-31T07:42:13;16.50;91.10
68691;DHT22;55675;49.588;8.640;2022-12-31T07:44:46;16.50;91.20
68691;DHT22;55675;49.588;8.640;2022-12-31T07:47:19;16.50;91.20
68691;DHT22;55675;49.588;8.640;2022-12-31T07:49:44;16.50;91.20
68691;DHT22;55675;49.588;8.640;2022-12-31T07:52:10;16.50;91.30
68691;DHT22;55675;49.588;8.640;2022-12-31T07:54:35;16.50;91.30
68691;DHT22;55675;49.588;8.640;2022-12-31T07:57:01;16.50;91.30
68691;DHT22;55675;49.588;8.640;2022-12-31T07:59:30;16.50;91.30
68691;DHT22;55675;49.588;8.640;2022-12-31T08:02:01;16.50;91.30
68691;DHT22;55675;49.588;8.640;2022-12-31T08:04:41;16.50;91.60
68691;DHT22;55675;49.588;8.640;2022-12-31T08:07:16;16.50;91.10
68691;DHT22;55675;49.588;8.640;2022-12-31T08:09:48;16.60;91.20
68691;DHT22;55675;49.588;8.640;2022-12-31T08:12:14;16.60;91.10
68691;DHT22;55675;49.588;8.640;2022-12-31T08:14:45;16.60;91.00
68691;DHT22;55675;49.588;8.640;2022-12-31T08:17:12;16.70;90.90
68691;DHT22;55675;49.588;8.640;2022-12-31T08:19:37;16.70;90.80
68691;DHT22;55675;49.588;8.640;2022-12-31T08:22:13;16.70;90.60
68691;DHT22;55675;49.588;8.640;2022-12-31T08:24:48;16.70;90.50
68691;DHT22;55675;49.588;8.640;2022-12-31T08:34:56;16.80;90.20
68691;DHT22;55675;49.588;8.640;2022-12-31T08:37:26;17.00;90.20
68691;DHT22;55675;49.588;8.640;2022-12-31T08:47:49;17.30;88.50
68691;DHT22;55675;49.588;8.640;2022-12-31T08:50:17;17.40;87.90
68691;DHT22;55675;49.588;8.640;2022-12-31T08:52:43;17.50;87.70
68691;DHT22;55675;49.588;8.640;2022-12-31T08:55:15;17.50;87.50
68691;DHT22;55675;49.588;8.640;2022-12-31T08:57:43;17.60;87.10
68691;DHT22;55675;49.588;8.640;2022-12-31T09:05:03;17.70;86.30
68691;DHT22;55675;49.588;8.640;2022-12-31T09:07:36;17.70;86.10
68691;DHT22;55675;49.588;8.640;2022-12-31T09:12:42;17.70;85.80
68691;DHT22;55675;49.588;8.640;2022-12-31T09:15:16;17.80;85.70
68691;DHT22;55675;49.588;8.640;2022-12-31T09:17:44;17.80;86.00
68691;DHT22;55675;49.588;8.640;2022-12-31T09:20:15;17.80;86.10
68691;DHT22;55675;49.588;8.640;2022-12-31T09:22:40;17.80;86.10
68691;DHT22;55675;49.588;8.640;2022-12-31T09:25:10;17.80;86.10
68691;DHT22;55675;49.588;8.640;2022-12-31T09:27:37;17.80;86.10
68691;DHT22;55675;49.588;8.640;2022-12-31T09:35:18;17.80;85.80
68691;DHT22;55675;49.588;8.640;2022-12-31T09:37:47;17.80;85.90
68691;DHT22;55675;49.588;8.640;2022-12-31T09:47:47;17.80;85.80
68691;DHT22;55675;49.588;8.640;2022-12-31T09:50:18;17.80;85.90
68691;DHT22;55675;49.588;8.640;2022-12-31T09:55:22;17.90;86.20
68691;DHT22;55675;49.588;8.640;2022-12-31T09:58:40;17.90;86.10
68691;DHT22;55675;49.588;8.640;2022-12-31T10:06:18;18.20;85.30
68691;DHT22;55675;49.588;8.640;2022-12-31T10:08:53;18.30;85.00
68691;DHT22;55675;49.588;8.640;2022-12-31T10:11:46;18.30;84.90
68691;DHT22;55675;49.588;8.640;2022-12-31T10:14:24;18.40;83.90
68691;DHT22;55675;49.588;8.640;2022-12-31T10:17:00;18.40;83.40
68691;DHT22;55675;49.588;8.640;2022-12-31T10:25:05;18.30;83.30
68691;DHT22;55675;49.588;8.640;2022-12-31T10:30:02;18.20;83.10
68691;DHT22;55675;49.588;8.640;2022-12-31T10:37:47;18.30;82.60
68691;DHT22;55675;49.588;8.640;2022-12-31T10:45:19;18.50;81.80
68691;DHT22;55675;49.588;8.640;2022-12-31T10:53:15;18.70;81.00
68691;DHT22;55675;49.588;8.640;2022-12-31T10:58:38;18.80;80.80
68691;DHT22;55675;49.588;8.640;2022-12-31T11:01:12;18.90;80.40
68691;DHT22;55675;49.588;8.640;2022-12-31T11:09:15;19.10;79.20
68691;DHT22;55675;49.588;8.640;2022-12-31T11:15:17;19.30;78.60
68691;DHT22;55675;49.588;8.640;2022-12-31T11:19:40;19.50;78.00
68691;DHT22;55675;49.588;8.640;2022-12-31T11:22:15;19.60;77.70
68691;DHT22;55675;49.588;8.640;2022-12-31T11:27:32;19.70;76.50
68691;DHT22;55675;49.588;8.640;2022-12-31T11:37:57;20.10;74.50
68691;DHT22;55675;49.588;8.640;2022-12-31T11:43:07;20.20;74.20
68691;DHT22;55675;49.588;8.640;2022-12-31T11:45:39;20.30;74.10
68691;DHT22;55675;49.588;8.640;2022-12-31T11:48:26;20.40;73.80
68691;DHT22;55675;49.588;8.640;2022-12-31T11:51:10;20.50;73.70
68691;DHT22;55675;49.588;8.640;2022-12-31T11:56:24;20.60;72.70
68691;DHT22;55675;49.588;8.640;2022-12-31T11:58:53;20.70;72.40
68691;DHT22;55675;49.588;8.640;2022-12-31T12:04:03;20.70;72.40
68691;DHT22;55675;49.588;8.640;2022-12-31T12:06:30;20.70;71.90
68691;DHT22;55675;49.588;8.640;2022-12-31T12:08:58;20.60;71.90
68691;DHT22;55675;49.588;8.640;2022-12-31T12:11:24;20.60;72.00
68691;DHT22;55675;49.588;8.640;2022-12-31T12:13:50;20.50;71.70
68691;DHT22;55675;49.588;8.640;2022-12-31T12:16:16;20.50;72.30
68691;DHT22;55675;49.588;8.640;2022-12-31T12:18:47;20.50;72.50
68691;DHT22;55675;49.588;8.640;2022-12-31T12:23:39;20.50;72.60
68691;DHT22;55675;49.588;8.640;2022-12-31T12:26:05;20.50;72.50
68691;DHT22;55675;49.588;8.640;2022-12-31T12:28:44;20.50;72.60
68691;DHT22;55675;49.588;8.640;2022-12-31T12:31:16;20.50;72.80
68691;DHT22;55675;49.588;8.640;2022-12-31T12:33:43;20.50;72.70
68691;DHT22;55675;49.588;8.640;2022-12-31T12:36:10;20.50;72.00
68691;DHT22;55675;49.588;8.640;2022-12-31T12:38:36;20.50;72.20
68691;DHT22;55675;49.588;8.640;2022-12-31T12:41:02;20.50;71.90
68691;DHT22;55675;49.588;8.640;2022-12-31T12:43:29;20.60;71.70
68691;DHT22;55675;49.588;8.640;2022-12-31T12:46:01;20.70;71.80
68691;DHT22;55675;49.588;8.640;2022-12-31T12:50:53;21.00;69.90
68691;DHT22;55675;49.588;8.640;2022-12-31T13:01:19;22.80;63.90
68691;DHT22;55675;49.588;8.640;2022-12-31T13:11:31;23.60;58.60
68691;DHT22;55675;49.588;8.640;2022-12-31T13:14:04;23.20;58.30
68691;DHT22;55675;49.588;8.640;2022-12-31T13:16:39;22.80;59.90
68691;DHT22;55675;49.588;8.640;2022-12-31T13:19:13;22.50;61.20
68691;DHT22;55675;49.588;8.640;2022-12-31T13:21:53;22.20;62.20
68691;DHT22;55675;49.588;8.640;2022-12-31T13:29:29;21.50;64.50
68691;DHT22;55675;49.588;8.640;2022-12-31T13:31:56;21.40;65.40
68691;DHT22;55675;49.588;8.640;2022-12-31T13:34:26;21.30;66.00
68691;DHT22;55675;49.588;8.640;2022-12-31T13:36:53;21.20;65.70
68691;DHT22;55675;49.588;8.640;2022-12-31T13:39:22;21.10;65.50
68691;DHT22;55675;49.588;8.640;2022-12-31T13:41:51;21.00;65.70
68691;DHT22;55675;49.588;8.640;2022-12-31T13:47:07;20.80;66.30
68691;DHT22;55675;49.588;8.640;2022-12-31T13:49:51;20.70;66.40
68691;DHT22;55675;49.588;8.640;2022-12-31T13:52:37;20.60;66.40
68691;DHT22;55675;49.588;8.640;2022-12-31T13:55:21;20.40;66.90
68691;DHT22;55675;49.588;8.640;2022-12-31T14:00:33;20.30;67.50
68691;DHT22;55675;49.588;8.640;2022-12-31T14:05:36;20.10;67.20
68691;DHT22;55675;49.588;8.640;2022-12-31T14:08:06;20.00;67.80
68691;DHT22;55675;49.588;8.640;2022-12-31T14:13:23;19.80;68.30
68691;DHT22;55675;49.588;8.640;2022-12-31T14:15:53;19.80;68.20
68691;DHT22;55675;49.588;8.640;2022-12-31T14:18:22;19.70;68.80
68691;DHT22;55675;49.588;8.640;2022-12-31T14:20:56;19.60;68.90
68691;DHT22;55675;49.588;8.640;2022-12-31T14:26:08;19.60;70.00
68691;DHT22;55675;49.588;8.640;2022-12-31T14:28:38;19.50;70.20
68691;DHT22;55675;49.588;8.640;2022-12-31T14:31:11;19.40;70.50
68691;DHT22;55675;49.588;8.640;2022-12-31T14:36:16;19.20;71.20
68691;DHT22;55675;49.588;8.640;2022-12-31T14:46:31;18.90;72.50
68691;DHT22;55675;49.588;8.640;2022-12-31T14:51:44;18.70;73.00
68691;DHT22;55675;49.588;8.640;2022-12-31T14:54:26;18.60;73.40
68691;DHT22;55675;49.588;8.640;2022-12-31T14:56:52;18.50;73.50
68691;DHT22;55675;49.588;8.640;2022-12-31T14:59:25;18.40;73.90
68691;DHT22;55675;49.588;8.640;2022-12-31T15:01:51;18.30;74.00
68691;DHT22;55675;49.588;8.640;2022-12-31T15:04:26;18.20;74.30
68691;DHT22;55675;49.588;8.640;2022-12-31T15:07:03;18.10;74.60
68691;DHT22;55675;49.588;8.640;2022-12-31T15:17:11;17.80;76.10
68691;DHT22;55675;49.588;8.640;2022-12-31T15:22:20;17.60;76.90
68691;DHT22;55675;49.588;8.640;2022-12-31T15:24:53;17.50;77.10
68691;DHT22;55675;49.588;8.640;2022-12-31T15:29:53;17.30;77.70
68691;DHT22;55675;49.588;8.640;2022-12-31T15:32:21;17.20;78.20
68691;DHT22;55675;49.588;8.640;2022-12-31T15:34:58;17.10;78.30
68691;DHT22;55675;49.588;8.640;2022-12-31T15:37:31;17.10;78.80
68691;DHT22;55675;49.588;8.640;2022-12-31T15:42:41;16.90;79.10
68691;DHT22;55675;49.588;8.640;2022-12-31T15:45:12;16.90;79.50
68691;DHT22;55675;49.588;8.640;2022-12-31T15:47:40;16.80;79.50
68691;DHT22;55675;49.588;8.640;2022-12-31T15:50:16;16.80;79.70
68691;DHT22;55675;49.588;8.640;2022-12-31T15:52:44;16.80;80.00
68691;DHT22;55675;49.588;8.640;2022-12-31T15:57:46;16.70;80.20
68691;DHT22;55675;49.588;8.640;2022-12-31T16:00:16;16.70;80.50
68691;DHT22;55675;49.588;8.640;2022-12-31T16:02:42;16.70;80.40
68691;DHT22;55675;49.588;8.640;2022-12-31T16:05:20;16.70;80.70
68691;DHT22;55675;49.588;8.640;2022-12-31T16:07:46;16.60;81.00
68691;DHT22;55675;49.588;8.640;2022-12-31T16:10:16;16.60;81.20
68691;DHT22;55675;49.588;8.640;2022-12-31T16:12:44;16.60;81.10
68691;DHT22;55675;49.588;8.640;2022-12-31T16:15:18;16.60;81.10
68691;DHT22;55675;49.588;8.640;2022-12-31T16:17:44;16.60;81.60
68691;DHT22;55675;49.588;8.640;2022-12-31T16:20:24;16.50;81.60
68691;DHT22;55675;49.588;8.640;2022-12-31T16:22:50;16.50;81.80
68691;DHT22;55675;49.588;8.640;2022-12-31T16:25:18;16.30;82.70
68691;DHT22;55675;49.588;8.640;2022-12-31T16:27:43;16.30;82.20
68691;DHT22;55675;49.588;8.640;2022-12-31T16:30:19;16.30;82.50
68691;DHT22;55675;49.588;8.640;2022-12-31T16:32:46;16.20;82.50
68691;DHT22;55675;49.588;8.640;2022-12-31T16:35:19;16.20;82.70
68691;DHT22;55675;49.588;8.640;2022-12-31T16:37:45;16.20;82.80
68691;DHT22;55675;49.588;8.640;2022-12-31T16:40:20;16.10;83.00
68691;DHT22;55675;49.588;8.640;2022-12-31T16:42:45;16.00;82.90
68691;DHT22;55675;49.588;8.640;2022-12-31T16:45:21;16.00;83.10
68691;DHT22;55675;49.588;8.640;2022-12-31T16:47:49;16.00;83.20
68691;DHT22;55675;49.588;8.640;2022-12-31T16:50:16;15.90;83.20
68691;DHT22;55675;49.588;8.640;2022-12-31T16:52:43;15.90;83.40
68691;DHT22;55675;49.588;8.640;2022-12-31T16:55:10;15.80;83.40
68691;DHT22;55675;49.588;8.640;2022-12-31T16:57:39;15.80;83.40
68691;DHT22;55675;49.588;8.640;2022-12-31T17:00:05;15.80;83.70
68691;DHT22;55675;49.588;8.640;2022-12-31T17:02:38;15.70;83.70
68691;DHT22;55675;49.588;8.640;2022-12-31T17:05:04;15.70;83.90
68691;DHT22;55675;49.588;8.640;2022-12-31T17:07:41;15.70;84.10
68691;DHT22;55675;49.588;8.640;2022-12-31T17:10:20;15.60;84.20
68691;DHT22;55675;49.588;8.640;2022-12-31T17:12:47;15.60;84.10
68691;DHT22;55675;49.588;8.640;2022-12-31T17:15:25;15.60;84.20
68691;DHT22;55675;49.588;8.640;2022-12-31T17:17:56;15.60;84.10
68691;DHT22;55675;49.588;8.640;2022-12-31T17:20:23;15.60;84.20
68691;DHT22;55675;49.588;8.640;2022-12-31T17:22:49;15.60;84.30
68691;DHT22;55675;49.588;8.640;2022-12-31T17:27:42;15.50;84.40
68691;DHT22;55675;49.588;8.640;2022-12-31T17:32:44;15.50;84.40
68691;DHT22;55675;49.588;8.640;2022-12-31T17:35:32;15.70;84.30
68691;DHT22;55675;49.588;8.640;2022-12-31T17:40:41;15.70;83.90
68691;DHT22;55675;49.588;8.640;2022-12-31T17:43:08;15.70;83.70
68691;DHT22;55675;49.588;8.640;2022-12-31T17:45:35;15.70;83.70
68691;DHT22;55675;49.588;8.640;2022-12-31T17:48:01;15.70;83.60
68691;DHT22;55675;49.588;8.640;2022-12-31T17:50:26;15.70;83.60
68691;DHT22;55675;49.588;8.640;2022-12-31T17:52:55;15.70;83.60
68691;DHT22;55675;49.588;8.640;2022-12-31T17:55:21;15.70;83.50
68691;DHT22;55675;49.588;8.640;2022-12-31T17:57:48;15.70;83.50
68691;DHT22;55675;49.588;8.640;2022-12-31T18:00:15;15.70;83.30
68691;DHT22;55675;49.588;8.640;2022-12-31T18:02:41;15.80;83.10
68691;DHT22;55675;49.588;8.640;2022-12-31T18:05:14;15.80;83.10
68691;DHT22;55675;49.588;8.640;2022-12-31T18:07:40;15.80;83.10
68691;DHT22;55675;49.588;8.640;2022-12-31T18:10:06;15.80;83.10
68691;DHT22;55675;49.588;8.640;2022-12-31T18:12:31;15.80;83.10
68691;DHT22;55675;49.588;8.640;2022-12-31T18:14:57;15.80;83.00
68691;DHT22;55675;49.588;8.640;2022-12-31T18:17:22;15.80;82.90
68691;DHT22;55675;49.588;8.640;2022-12-31T18:19:48;15.90;82.80
68691;DHT22;55675;49.588;8.640;2022-12-31T18:22:14;15.90;82.90
68691;DHT22;55675;49.588;8.640;2022-12-31T18:24:40;15.90;82.70
68691;DHT22;55675;49.588;8.640;2022-12-31T18:27:15;15.90;82.40
68691;DHT22;55675;49.588;8.640;2022-12-31T18:29:42;16.00;82.30
68691;DHT22;55675;49.588;8.640;2022-12-31T18:32:23;16.00;82.20
68691;DHT22;55675;49.588;8.640;2022-12-31T18:34:49;16.10;82.00
68691;DHT22;55675;49.588;8.640;2022-12-31T18:37:15;16.00;81.70
68691;DHT22;55675;49.588;8.640;2022-12-31T18:39:40;16.00;81.40
68691;DHT22;55675;49.588;8.640;2022-12-31T18:42:08;16.10;81.30
68691;DHT22;55675;49.588;8.640;2022-12-31T18:44:34;16.10;81.00
68691;DHT22;55675;49.588;8.640;2022-12-31T18:47:00;16.10;80.70
68691;DHT22;55675;49.588;8.640;2022-12-31T18:49:25;16.10;80.80
68691;DHT22;55675;49.588;8.640;2022-12-31T18:51:51;16.10;80.40
68691;DHT22;55675;49.588;8.640;2022-12-31T18:54:18;16.10;80.60
68691;DHT22;55675;49.588;8.640;2022-12-31T18:56:44;16.10;80.40
68691;DHT22;55675;49.588;8.640;2022-12-31T18:59:09;16.20;80.10
68691;DHT22;55675;49.588;8.640;2022-12-31T19:01:37;16.20;79.90
68691;DHT22;55675;49.588;8.640;2022-12-31T19:04:10;16.20;79.70
68691;DHT22;55675;49.588;8.640;2022-12-31T19:06:36;16.20;79.60
68691;DHT22;55675;49.588;8.640;2022-12-31T19:09:02;16.30;79.30
68691;DHT22;55675;49.588;8.640;2022-12-31T19:11:27;16.30;79.00
68691;DHT22;55675;49.588;8.640;2022-12-31T19:13:52;16.30;78.70
68691;DHT22;55675;49.588;8.640;2022-12-31T19:16:18;16.40;78.80
68691;DHT22;55675;49.588;8.640;2022-12-31T19:18:43;16.40;78.50
68691;DHT22;55675;49.588;8.640;2022-12-31T19:21:16;16.40;78.70
68691;DHT22;55675;49.588;8.640;2022-12-31T19:23:43;16.40;78.80